Time;durP1;ratioP1;P1;durP2;ratioP2;P2;SDS_P1;SDS_P2;PMS_P1;PMS_P2;Temp;Humidity;BMP_temperature;BMP_pressure;BME280_temperature;BME280_humidity;BME280_pressure;Samples;Min_cycle;Max_cycle;Signal;HPM_P1;HPM_P2
2023/10/30 00:01:08;;;;;;;7.38;1.48;;;;;;;;;;5092657;28;20031;-72
2023/10/30 00:03:34;;;;;;;7.93;1.40;;;;;;;;;;5092846;28;20016;-73
2023/10/30 00:05:59;;;;;;;8.52;1.65;;;;;;;;;;5092859;28;20476;-73
2023/10/30 00:08:26;;;;;;;7.00;1.52;;;;;;;;;;5092843;28;20028;-73
2023/10/30 00:10:52;;;;;;;6.28;1.23;;;;;;;;;;5092871;28;20019;-74
2023/10/30 00:13:18;;;;;;;7.43;1.60;;;;;;;;;;5092613;28;20032;-73
2023/10/30 00:15:44;;;;;;;6.75;1.40;;;;;;;;;;5092814;28;20020;-73
2023/10/30 00:18:10;;;;;;;6.05;1.35;;;;;;;;;;5092775;28;20047;-74
2023/10/30 00:20:39;;;;;;;9.32;1.85;;;;;;;;;;5092691;28;20099;-74
2023/10/30 00:23:05;;;;;;;9.27;1.40;;;;;;;;;;5093656;28;20035;-73
2023/10/30 00:25:31;;;;;;;16.15;1.98;;;;;;;;;;5092953;28;20023;-72
2023/10/30 00:28:00;;;;;;;7.28;1.38;;;;;;;;;;5094088;28;20024;-74
2023/10/30 00:30:26;;;;;;;4.68;1.30;;;;;;;;;;5092787;28;20462;-72
2023/10/30 00:32:52;;;;;;;8.60;1.58;;;;;;;;;;5092275;28;20058;-73
2023/10/30 00:35:18;;;;;;;4.38;1.20;;;;;;;;;;5094034;28;20063;-73
2023/10/30 00:37:44;;;;;;;10.18;1.77;;;;;;;;;;5093571;28;20047;-72
2023/10/30 00:40:11;;;;;;;8.18;1.90;;;;;;;;;;5092712;28;20035;-73
2023/10/30 00:42:37;;;;;;;6.60;1.45;;;;;;;;;;5092317;28;20031;-73
2023/10/30 00:45:06;;;;;;;10.93;1.92;;;;;;;;;;5093284;28;20032;-73
2023/10/30 00:47:34;;;;;;;16.10;1.90;;;;;;;;;;5094484;28;20020;-73
2023/10/30 00:50:00;;;;;;;10.38;1.90;;;;;;;;;;5093244;28;20016;-73
2023/10/30 00:52:26;;;;;;;11.68;2.45;;;;;;;;;;5094010;28;20032;-72
2023/10/30 00:54:54;;;;;;;10.98;1.90;;;;;;;;;;5094353;28;20020;-74
2023/10/30 00:57:20;;;;;;;14.68;2.13;;;;;;;;;;5092194;28;20023;-73
2023/10/30 00:59:45;;;;;;;9.43;1.70;;;;;;;;;;5092187;28;20441;-72
2023/10/30 01:02:11;;;;;;;16.50;2.30;;;;;;;;;;5092303;28;20063;-73
2023/10/30 01:04:37;;;;;;;12.68;2.33;;;;;;;;;;5094278;28;20016;-72
2023/10/30 01:07:04;;;;;;;13.35;2.38;;;;;;;;;;5094370;28;20037;-73
2023/10/30 01:09:29;;;;;;;9.45;1.90;;;;;;;;;;5096515;28;20099;-74
2023/10/30 01:11:55;;;;;;;14.23;2.00;;;;;;;;;;5096160;28;20066;-73
2023/10/30 01:14:21;;;;;;;11.93;2.08;;;;;;;;;;5096596;28;20030;-73
2023/10/30 01:16:49;;;;;;;13.45;1.92;;;;;;;;;;5096412;28;20058;-73
2023/10/30 01:19:15;;;;;;;7.85;1.50;;;;;;;;;;5096891;28;20071;-72
2023/10/30 01:21:41;;;;;;;13.48;1.92;;;;;;;;;;5098911;28;20028;-73
2023/10/30 01:24:08;;;;;;;12.85;1.75;;;;;;;;;;5096782;28;20024;-73
2023/10/30 01:26:34;;;;;;;6.65;1.55;;;;;;;;;;5093046;28;20024;-73
2023/10/30 01:29:00;;;;;;;10.40;1.70;;;;;;;;;;5093670;28;20024;-73
2023/10/30 01:31:30;;;;;;;8.20;1.35;;;;;;;;;;5097357;28;20024;-72
2023/10/30 01:33:55;;;;;;;11.23;1.83;;;;;;;;;;5102584;28;20111;-73
2023/10/30 01:36:22;;;;;;;10.05;1.67;;;;;;;;;;5095155;28;20047;-73
2023/10/30 01:38:48;;;;;;;7.45;1.52;;;;;;;;;;5096276;28;20047;-72
2023/10/30 01:41:14;;;;;;;10.40;1.60;;;;;;;;;;5094672;28;20030;-71
2023/10/30 01:43:40;;;;;;;11.35;2.00;;;;;;;;;;5102409;28;20055;-73
2023/10/30 01:46:06;;;;;;;11.52;1.67;;;;;;;;;;5101903;28;20501;-73
2023/10/30 01:48:33;;;;;;;7.63;1.88;;;;;;;;;;5100043;28;20024;-72
2023/10/30 01:50:59;;;;;;;6.18;1.77;;;;;;;;;;5095258;28;20019;-72
2023/10/30 01:53:25;;;;;;;7.88;1.45;;;;;;;;;;5095309;28;20447;-73
2023/10/30 01:55:52;;;;;;;9.43;1.67;;;;;;;;;;5095373;28;20020;-73
2023/10/30 01:58:18;;;;;;;11.38;1.20;;;;;;;;;;5096137;28;20024;-72
2023/10/30 02:00:47;;;;;;;8.40;1.52;;;;;;;;;;5097458;28;20043;-73
2023/10/30 02:03:14;;;;;;;10.55;1.48;;;;;;;;;;5096776;28;20028;-73
2023/10/30 02:05:40;;;;;;;15.35;1.77;;;;;;;;;;5095597;28;20028;-73
2023/10/30 02:08:06;;;;;;;14.70;2.20;;;;;;;;;;5095481;28;20126;-73
2023/10/30 02:10:32;;;;;;;17.20;2.28;;;;;;;;;;5095347;28;20058;-74
2023/10/30 02:12:58;;;;;;;8.70;1.58;;;;;;;;;;5095025;28;20020;-73
2023/10/30 02:15:24;;;;;;;9.50;1.70;;;;;;;;;;5095212;28;20468;-72
2023/10/30 02:17:51;;;;;;;17.45;1.98;;;;;;;;;;5094595;28;20052;-72
2023/10/30 02:20:17;;;;;;;7.75;2.15;;;;;;;;;;5094920;28;20044;-72
2023/10/30 02:22:43;;;;;;;6.80;1.60;;;;;;;;;;5094616;28;20051;-73
2023/10/30 02:25:09;;;;;;;14.43;1.77;;;;;;;;;;5094943;28;20024;-73
2023/10/30 02:27:35;;;;;;;7.30;1.40;;;;;;;;;;5094938;28;20095;-73
2023/10/30 02:30:01;;;;;;;13.60;2.08;;;;;;;;;;5094736;28;20617;-75
2023/10/30 02:32:27;;;;;;;9.00;1.90;;;;;;;;;;5094699;28;20020;-74
2023/10/30 02:34:53;;;;;;;9.20;1.60;;;;;;;;;;5094810;28;20032;-74
2023/10/30 02:37:19;;;;;;;7.90;1.52;;;;;;;;;;5095754;28;20102;-75
2023/10/30 02:39:45;;;;;;;7.22;1.75;;;;;;;;;;5096471;28;20028;-74
2023/10/30 02:42:12;;;;;;;11.25;2.00;;;;;;;;;;5095956;28;20098;-73
2023/10/30 02:44:38;;;;;;;19.00;2.70;;;;;;;;;;5096122;28;20028;-73
2023/10/30 02:47:04;;;;;;;10.13;1.67;;;;;;;;;;5096120;28;20442;-72
2023/10/30 02:49:31;;;;;;;9.88;1.65;;;;;;;;;;5096087;28;20020;-73
2023/10/30 02:51:57;;;;;;;15.88;2.00;;;;;;;;;;5095962;28;20030;-73
2023/10/30 02:54:22;;;;;;;9.80;1.90;;;;;;;;;;5092594;28;20383;-72
2023/10/30 02:56:48;;;;;;;17.42;2.25;;;;;;;;;;5094243;28;20028;-74
2023/10/30 02:59:14;;;;;;;9.20;1.90;;;;;;;;;;5094197;28;20024;-74
2023/10/30 03:01:41;;;;;;;13.60;2.08;;;;;;;;;;5094035;28;20055;-74
2023/10/30 03:04:07;;;;;;;18.20;2.20;;;;;;;;;;5094089;28;20122;-73
2023/10/30 03:06:33;;;;;;;14.52;1.88;;;;;;;;;;5094450;28;20025;-73
2023/10/30 03:08:59;;;;;;;11.35;1.63;;;;;;;;;;5094474;28;20036;-74
2023/10/30 03:11:25;;;;;;;11.88;2.38;;;;;;;;;;5094020;28;20031;-74
2023/10/30 03:13:51;;;;;;;13.70;2.20;;;;;;;;;;5094260;28;20506;-73
2023/10/30 03:16:17;;;;;;;13.32;2.30;;;;;;;;;;5094037;28;20028;-73
2023/10/30 03:18:43;;;;;;;16.92;2.55;;;;;;;;;;5093845;28;20539;-73
2023/10/30 03:21:09;;;;;;;14.40;2.50;;;;;;;;;;5093574;28;20036;-72
2023/10/30 03:23:35;;;;;;;16.17;2.35;;;;;;;;;;5094155;28;20020;-71
2023/10/30 03:26:01;;;;;;;17.17;2.05;;;;;;;;;;5094138;28;20042;-72
2023/10/30 03:28:27;;;;;;;13.55;2.10;;;;;;;;;;5093815;28;20055;-74
2023/10/30 03:30:53;;;;;;;15.63;2.25;;;;;;;;;;5099565;28;20376;-74
2023/10/30 03:33:20;;;;;;;16.70;2.08;;;;;;;;;;5105789;28;20024;-73
2023/10/30 03:35:46;;;;;;;17.25;2.40;;;;;;;;;;5100323;28;20093;-73
2023/10/30 03:38:14;;;;;;;12.82;2.13;;;;;;;;;;5093446;28;20062;-74
2023/10/30 03:40:40;;;;;;;23.58;2.42;;;;;;;;;;5101147;28;20414;-73
2023/10/30 03:43:06;;;;;;;20.00;2.53;;;;;;;;;;5093248;28;20028;-75
2023/10/30 03:45:32;;;;;;;20.55;2.90;;;;;;;;;;5093586;28;20097;-73
2023/10/30 03:47:58;;;;;;;15.77;2.65;;;;;;;;;;5093349;28;20467;-74
2023/10/30 03:50:24;;;;;;;19.55;2.80;;;;;;;;;;5093480;28;20113;-73
2023/10/30 03:52:51;;;;;;;18.48;2.67;;;;;;;;;;5093883;28;20020;-74
2023/10/30 03:55:17;;;;;;;11.00;2.15;;;;;;;;;;5077413;28;20032;-73
2023/10/30 03:57:45;;;;;;;16.23;2.83;;;;;;;;;;5094486;28;20031;-74
2023/10/30 04:00:13;;;;;;;18.40;3.40;;;;;;;;;;5094115;28;20028;-74
2023/10/30 04:02:39;;;;;;;15.85;2.80;;;;;;;;;;5095523;28;20479;-73
2023/10/30 04:05:06;;;;;;;10.93;2.45;;;;;;;;;;5091093;28;20035;-72
2023/10/30 04:07:32;;;;;;;25.13;3.00;;;;;;;;;;5095609;28;20032;-73
2023/10/30 04:09:58;;;;;;;24.27;2.92;;;;;;;;;;5093530;28;20463;-73
2023/10/30 04:12:24;;;;;;;23.15;2.90;;;;;;;;;;5092443;28;20035;-72
2023/10/30 04:14:51;;;;;;;15.05;2.35;;;;;;;;;;5093983;28;20024;-72
2023/10/30 04:17:17;;;;;;;10.32;2.33;;;;;;;;;;5093358;28;20028;-72
2023/10/30 04:19:43;;;;;;;10.93;2.28;;;;;;;;;;5092644;28;20099;-72
2023/10/30 04:22:09;;;;;;;29.00;4.68;;;;;;;;;;5092317;28;20024;-73
2023/10/30 04:24:35;;;;;;;15.18;2.75;;;;;;;;;;5092579;28;20051;-74
2023/10/30 04:27:01;;;;;;;20.45;2.95;;;;;;;;;;5093241;28;20077;-73
2023/10/30 04:29:28;;;;;;;26.52;3.30;;;;;;;;;;5094570;28;20491;-74
2023/10/30 04:31:54;;;;;;;16.83;2.42;;;;;;;;;;5094378;28;20024;-73
2023/10/30 04:34:20;;;;;;;18.48;2.60;;;;;;;;;;5092885;28;20451;-74
2023/10/30 04:36:46;;;;;;;16.27;2.83;;;;;;;;;;5092616;28;20030;-72
2023/10/30 04:39:13;;;;;;;21.08;2.65;;;;;;;;;;5091163;28;20028;-72
2023/10/30 04:41:39;;;;;;;19.75;2.83;;;;;;;;;;5091931;28;20020;-72
2023/10/30 04:44:06;;;;;;;34.33;3.25;;;;;;;;;;5091865;28;20059;-72
2023/10/30 04:46:32;;;;;;;17.92;3.30;;;;;;;;;;5098239;28;20020;-72
2023/10/30 04:48:58;;;;;;;20.23;3.10;;;;;;;;;;5095262;28;20020;-73
2023/10/30 04:51:25;;;;;;;10.77;2.40;;;;;;;;;;5093197;28;20385;-74
2023/10/30 04:53:53;;;;;;;15.93;2.97;;;;;;;;;;5095041;28;20025;-72
2023/10/30 04:56:26;;;;;;;16.83;2.60;;;;;;;;;;5094294;28;20043;-76
2023/10/30 04:58:52;;;;;;;18.13;2.58;;;;;;;;;;5093849;28;20545;-74
2023/10/30 05:01:17;;;;;;;19.75;2.65;;;;;;;;;;5092279;28;20053;-73
2023/10/30 05:03:44;;;;;;;19.42;3.03;;;;;;;;;;5092401;28;20024;-72
2023/10/30 05:06:09;;;;;;;21.27;2.50;;;;;;;;;;5091861;28;20085;-72
2023/10/30 05:08:36;;;;;;;19.15;2.85;;;;;;;;;;5091878;28;20465;-72
2023/10/30 05:11:02;;;;;;;19.83;2.92;;;;;;;;;;5092020;28;20050;-73
2023/10/30 05:13:28;;;;;;;18.48;3.08;;;;;;;;;;5092447;28;20113;-73
2023/10/30 05:15:57;;;;;;;14.90;3.30;;;;;;;;;;5092257;28;20024;-73
2023/10/30 05:18:28;;;;;;;17.38;2.38;;;;;;;;;;5091193;28;20483;-74
2023/10/30 05:20:54;;;;;;;14.07;2.63;;;;;;;;;;5092061;28;20146;-73
2023/10/30 05:23:20;;;;;;;19.33;3.08;;;;;;;;;;5092688;28;20063;-72
2023/10/30 05:25:46;;;;;;;26.88;3.17;;;;;;;;;;5091734;28;20024;-72
2023/10/30 05:28:12;;;;;;;23.80;2.95;;;;;;;;;;5091620;28;20020;-73
2023/10/30 05:30:38;;;;;;;16.95;2.72;;;;;;;;;;5091872;28;20020;-74
2023/10/30 05:33:05;;;;;;;20.75;2.55;;;;;;;;;;5091826;28;20016;-73
2023/10/30 05:35:31;;;;;;;17.42;2.63;;;;;;;;;;5097390;28;20024;-74
2023/10/30 05:37:58;;;;;;;20.65;2.50;;;;;;;;;;5097716;28;20085;-73
2023/10/30 05:40:24;;;;;;;23.98;3.30;;;;;;;;;;5097136;28;20020;-73
2023/10/30 05:42:50;;;;;;;17.13;3.15;;;;;;;;;;5090876;28;20173;-72
2023/10/30 05:45:16;;;;;;;25.85;3.63;;;;;;;;;;5091743;28;20032;-74
2023/10/30 05:47:42;;;;;;;18.38;2.80;;;;;;;;;;5091845;28;20095;-74
2023/10/30 05:50:09;;;;;;;23.58;3.50;;;;;;;;;;5092402;28;20044;-74
2023/10/30 05:52:35;;;;;;;18.30;3.20;;;;;;;;;;5092324;28;20028;-73
2023/10/30 05:55:02;;;;;;;22.48;2.80;;;;;;;;;;5092847;28;20039;-74
2023/10/30 05:57:28;;;;;;;19.45;3.40;;;;;;;;;;5092551;28;20475;-73
2023/10/30 05:59:54;;;;;;;29.38;6.38;;;;;;;;;;5091150;28;20099;-74
2023/10/30 06:02:20;;;;;;;17.23;3.00;;;;;;;;;;5092830;28;20024;-73
2023/10/30 06:04:46;;;;;;;20.95;3.78;;;;;;;;;;5092921;28;20028;-73
2023/10/30 06:07:12;;;;;;;23.50;3.13;;;;;;;;;;5091738;28;20030;-73
2023/10/30 06:09:38;;;;;;;25.02;3.85;;;;;;;;;;5091210;28;20024;-72
2023/10/30 06:12:04;;;;;;;21.02;3.42;;;;;;;;;;5091471;28;20024;-74
2023/10/30 06:14:30;;;;;;;20.52;3.58;;;;;;;;;;5092500;28;20024;-74
2023/10/30 06:16:58;;;;;;;20.00;3.63;;;;;;;;;;5105501;28;20032;-73
2023/10/30 06:19:24;;;;;;;14.35;2.70;;;;;;;;;;5091604;28;20020;-74
2023/10/30 06:21:50;;;;;;;20.42;3.33;;;;;;;;;;5090373;28;20089;-73
2023/10/30 06:24:16;;;;;;;26.85;3.58;;;;;;;;;;5090878;28;20027;-73
2023/10/30 06:26:42;;;;;;;19.20;3.38;;;;;;;;;;5091233;28;20089;-74
2023/10/30 06:29:08;;;;;;;22.75;3.30;;;;;;;;;;5093058;28;20112;-73
2023/10/30 06:31:35;;;;;;;16.05;2.95;;;;;;;;;;5094399;28;20020;-74
2023/10/30 06:34:01;;;;;;;20.45;2.88;;;;;;;;;;5095059;28;20031;-74
2023/10/30 06:36:27;;;;;;;22.30;3.30;;;;;;;;;;5097758;28;20027;-74
2023/10/30 06:38:55;;;;;;;19.98;3.50;;;;;;;;;;5094988;28;20073;-74
2023/10/30 06:41:21;;;;;;;22.45;3.72;;;;;;;;;;5095718;28;20024;-74
2023/10/30 06:43:47;;;;;;;17.20;2.83;;;;;;;;;;5094615;28;20414;-72
2023/10/30 06:46:13;;;;;;;30.85;3.83;;;;;;;;;;5094295;28;20145;-73
2023/10/30 06:48:39;;;;;;;21.05;3.40;;;;;;;;;;5094271;28;20032;-71
2023/10/30 06:51:05;;;;;;;21.85;3.67;;;;;;;;;;5092863;28;20109;-73
2023/10/30 06:53:31;;;;;;;30.98;4.38;;;;;;;;;;5092758;28;20024;-72
2023/10/30 06:55:57;;;;;;;25.05;4.45;;;;;;;;;;5094320;28;20445;-73
2023/10/30 06:58:23;;;;;;;21.88;3.30;;;;;;;;;;5094060;28;20069;-73
2023/10/30 07:00:49;;;;;;;21.65;3.58;;;;;;;;;;5094207;28;20122;-74
2023/10/30 07:03:15;;;;;;;28.27;3.97;;;;;;;;;;5093651;28;20081;-73
2023/10/30 07:05:44;;;;;;;18.10;3.00;;;;;;;;;;5095661;28;20027;-74
2023/10/30 07:08:10;;;;;;;24.25;3.53;;;;;;;;;;5098754;28;20024;-73
2023/10/30 07:10:36;;;;;;;15.38;3.75;;;;;;;;;;5100582;28;20047;-73
2023/10/30 07:13:02;;;;;;;17.23;3.80;;;;;;;;;;5098020;28;20084;-74
2023/10/30 07:15:28;;;;;;;55.72;4.00;;;;;;;;;;5093989;28;20051;-73
2023/10/30 07:17:55;;;;;;;16.00;3.38;;;;;;;;;;5093836;28;20494;-72
2023/10/30 07:20:21;;;;;;;22.10;3.67;;;;;;;;;;5092389;28;20031;-73
2023/10/30 07:22:47;;;;;;;23.55;3.50;;;;;;;;;;5093367;28;20028;-72
2023/10/30 07:25:13;;;;;;;19.52;4.13;;;;;;;;;;5093961;28;20449;-75
2023/10/30 07:27:39;;;;;;;33.35;3.95;;;;;;;;;;5094297;28;20097;-74
2023/10/30 07:30:06;;;;;;;22.00;3.88;;;;;;;;;;5095732;28;20404;-74
2023/10/30 07:32:32;;;;;;;22.38;3.40;;;;;;;;;;5094745;28;20024;-73
2023/10/30 07:34:58;;;;;;;22.35;4.15;;;;;;;;;;5092165;28;20442;-73
2023/10/30 07:37:24;;;;;;;28.77;4.28;;;;;;;;;;5093368;28;20027;-75
2023/10/30 07:39:50;;;;;;;22.58;3.28;;;;;;;;;;5092617;28;20024;-73
2023/10/30 07:42:16;;;;;;;22.92;4.30;;;;;;;;;;5092102;28;20054;-74
2023/10/30 07:44:42;;;;;;;19.33;3.95;;;;;;;;;;5093377;28;20023;-72
2023/10/30 07:47:08;;;;;;;21.80;3.70;;;;;;;;;;5093511;28;20028;-74
2023/10/30 07:49:34;;;;;;;22.92;4.25;;;;;;;;;;5093761;28;20028;-77
2023/10/30 07:52:00;;;;;;;22.13;3.67;;;;;;;;;;5093146;28;20383;-73
2023/10/30 07:54:26;;;;;;;21.10;4.65;;;;;;;;;;5093410;28;20035;-74
2023/10/30 07:56:53;;;;;;;24.08;4.70;;;;;;;;;;5093250;28;20109;-77
2023/10/30 07:59:19;;;;;;;23.42;4.88;;;;;;;;;;5095271;28;20025;-74
2023/10/30 08:01:45;;;;;;;21.27;4.72;;;;;;;;;;5095050;28;20107;-74
2023/10/30 08:04:11;;;;;;;19.00;3.13;;;;;;;;;;5092144;28;20462;-72
2023/10/30 08:06:37;;;;;;;15.23;2.55;;;;;;;;;;5092983;28;20051;-73
2023/10/30 08:09:04;;;;;;;14.98;2.63;;;;;;;;;;5092818;28;20047;-72
2023/10/30 08:11:32;;;;;;;20.40;3.42;;;;;;;;;;5092444;28;20458;-74
2023/10/30 08:13:58;;;;;;;24.30;3.70;;;;;;;;;;5092872;28;20017;-73
2023/10/30 08:16:24;;;;;;;17.80;2.60;;;;;;;;;;5093334;28;20096;-74
2023/10/30 08:18:50;;;;;;;14.27;2.55;;;;;;;;;;5092705;28;20031;-72
2023/10/30 08:21:16;;;;;;;13.75;2.67;;;;;;;;;;5094960;28;20584;-76
2023/10/30 08:23:42;;;;;;;20.30;2.92;;;;;;;;;;5093022;28;20020;-71
2023/10/30 08:26:08;;;;;;;18.38;2.92;;;;;;;;;;5092639;28;20028;-74
2023/10/30 08:28:35;;;;;;;13.88;2.42;;;;;;;;;;5093249;28;20286;-75
2023/10/30 08:31:01;;;;;;;13.52;2.60;;;;;;;;;;5094628;28;20022;-72
2023/10/30 08:33:27;;;;;;;25.67;3.70;;;;;;;;;;5093686;28;20463;-73
2023/10/30 08:35:54;;;;;;;14.18;2.88;;;;;;;;;;5095016;28;20052;-74
2023/10/30 08:38:20;;;;;;;12.48;2.22;;;;;;;;;;5094823;28;20394;-74
2023/10/30 08:40:46;;;;;;;12.68;2.85;;;;;;;;;;5093760;28;20490;-74
2023/10/30 08:43:12;;;;;;;17.10;2.95;;;;;;;;;;5091938;28;20043;-75
2023/10/30 08:45:38;;;;;;;15.60;2.72;;;;;;;;;;5093842;28;20531;-75
2023/10/30 08:48:05;;;;;;;21.65;3.10;;;;;;;;;;5094154;28;20047;-73
2023/10/30 08:50:30;;;;;;;14.25;2.50;;;;;;;;;;5092173;28;20456;-74
2023/10/30 08:52:56;;;;;;;19.65;2.92;;;;;;;;;;5091497;28;20024;-74
2023/10/30 08:55:22;;;;;;;13.25;3.10;;;;;;;;;;5091084;28;20059;-72
2023/10/30 08:57:48;;;;;;;11.90;2.40;;;;;;;;;;5092239;28;20031;-72
2023/10/30 09:00:16;;;;;;;14.65;2.80;;;;;;;;;;5091096;28;20028;-73
2023/10/30 09:02:43;;;;;;;16.02;3.35;;;;;;;;;;5091939;28;20020;-74
2023/10/30 09:05:09;;;;;;;14.90;3.10;;;;;;;;;;5092484;28;20066;-75
2023/10/30 09:07:35;;;;;;;16.45;2.90;;;;;;;;;;5092120;28;20095;-75
2023/10/30 09:10:01;;;;;;;11.68;2.67;;;;;;;;;;5092085;28;20024;-74
2023/10/30 09:12:27;;;;;;;8.15;2.33;;;;;;;;;;5092199;28;20031;-73
2023/10/30 09:14:53;;;;;;;13.27;2.58;;;;;;;;;;5092057;28;20032;-74
2023/10/30 09:17:20;;;;;;;14.40;2.22;;;;;;;;;;5091053;28;20028;-74
2023/10/30 09:19:46;;;;;;;16.10;3.38;;;;;;;;;;5092558;28;20024;-75
2023/10/30 09:22:12;;;;;;;15.60;2.83;;;;;;;;;;5090354;28;20344;-73
2023/10/30 09:24:38;;;;;;;22.23;2.97;;;;;;;;;;5092290;28;20020;-73
2023/10/30 09:27:04;;;;;;;17.15;3.05;;;;;;;;;;5092089;28;20082;-74
2023/10/30 09:29:30;;;;;;;17.33;2.80;;;;;;;;;;5092551;28;20024;-73
2023/10/30 09:31:59;;;;;;;13.00;2.92;;;;;;;;;;5092669;28;20028;-73
2023/10/30 09:34:25;;;;;;;13.80;3.10;;;;;;;;;;5092617;28;20076;-74
2023/10/30 09:36:51;;;;;;;18.17;2.67;;;;;;;;;;5091913;28;20107;-74
2023/10/30 09:39:17;;;;;;;19.60;2.88;;;;;;;;;;5090603;28;20035;-72
2023/10/30 09:41:45;;;;;;;13.73;2.25;;;;;;;;;;5090283;28;20502;-73
2023/10/30 09:44:11;;;;;;;16.70;2.75;;;;;;;;;;5091305;28;20424;-72
2023/10/30 09:46:40;;;;;;;15.77;2.60;;;;;;;;;;5090077;28;20434;-73
2023/10/30 09:49:08;;;;;;;19.45;3.28;;;;;;;;;;5091619;28;20028;-73
2023/10/30 09:51:36;;;;;;;18.40;2.50;;;;;;;;;;5089960;28;20056;-73
2023/10/30 09:54:02;;;;;;;19.17;3.47;;;;;;;;;;5091413;28;20021;-73
2023/10/30 09:56:31;;;;;;;18.55;3.42;;;;;;;;;;5093135;28;20075;-74
2023/10/30 09:58:59;;;;;;;21.48;3.42;;;;;;;;;;5093789;28;20024;-75
2023/10/30 10:01:26;;;;;;;21.90;3.95;;;;;;;;;;5092949;28;20119;-76
2023/10/30 10:03:52;;;;;;;18.10;3.47;;;;;;;;;;5093517;28;20024;-74
2023/10/30 10:06:18;;;;;;;23.92;3.88;;;;;;;;;;5097799;28;20044;-72
2023/10/30 10:08:44;;;;;;;17.77;2.75;;;;;;;;;;5098381;28;20031;-73
2023/10/30 10:11:10;;;;;;;16.98;2.60;;;;;;;;;;5098211;28;20529;-72
2023/10/30 10:13:43;;;;;;;16.80;3.30;;;;;;;;;;5097184;28;20051;-73
2023/10/30 10:16:10;;;;;;;21.95;3.03;;;;;;;;;;5095390;28;20486;-73
2023/10/30 10:18:36;;;;;;;16.83;2.80;;;;;;;;;;5094891;28;20036;-74
2023/10/30 10:21:08;;;;;;;13.82;2.95;;;;;;;;;;5094809;28;20031;-76
2023/10/30 10:23:34;;;;;;;23.42;3.00;;;;;;;;;;5097181;28;20157;-73
2023/10/30 10:26:03;;;;;;;22.05;3.40;;;;;;;;;;5095328;28;20433;-74
2023/10/30 10:28:29;;;;;;;15.50;2.97;;;;;;;;;;5102297;28;20040;-73
2023/10/30 10:30:55;;;;;;;23.30;3.15;;;;;;;;;;5113440;28;20483;-73
2023/10/30 10:33:22;;;;;;;19.40;2.55;;;;;;;;;;5111982;28;20024;-75
2023/10/30 10:35:52;;;;;;;24.20;2.95;;;;;;;;;;5115765;28;20105;-74
2023/10/30 10:38:18;;;;;;;19.73;3.05;;;;;;;;;;5118565;28;20016;-74
2023/10/30 10:40:47;;;;;;;20.42;4.10;;;;;;;;;;5118779;28;20075;-73
2023/10/30 10:43:13;;;;;;;14.07;2.55;;;;;;;;;;5112127;28;20028;-74
2023/10/30 10:45:40;;;;;;;20.75;3.10;;;;;;;;;;5095793;28;20024;-73
2023/10/30 10:48:07;;;;;;;15.88;3.20;;;;;;;;;;5094164;28;20024;-73
2023/10/30 10:50:34;;;;;;;17.45;3.20;;;;;;;;;;5094270;28;20025;-75
2023/10/30 10:53:02;;;;;;;17.23;3.20;;;;;;;;;;5096091;28;20096;-74
2023/10/30 10:55:30;;;;;;;24.02;3.53;;;;;;;;;;5099444;28;20120;-74
2023/10/30 10:57:57;;;;;;;22.13;2.75;;;;;;;;;;5098443;28;20035;-77
2023/10/30 11:00:25;;;;;;;17.10;3.30;;;;;;;;;;5096672;28;20095;-75
2023/10/30 11:02:51;;;;;;;19.52;3.25;;;;;;;;;;5096577;28;20039;-74
2023/10/30 11:05:18;;;;;;;19.23;3.35;;;;;;;;;;5094199;28;20024;-73
2023/10/30 11:07:58;;;;;;;14.50;3.00;;;;;;;;;;5093910;28;20024;-72
2023/10/30 11:10:35;;;;;;;15.13;2.92;;;;;;;;;;5094172;28;20073;-72
2023/10/30 11:13:04;;;;;;;17.73;2.67;;;;;;;;;;5093398;28;20048;-73
2023/10/30 11:15:36;;;;;;;16.10;2.63;;;;;;;;;;5092826;28;20543;-71
2023/10/30 11:18:20;;;;;;;19.58;3.30;;;;;;;;;;5093705;28;20032;-73
2023/10/30 11:20:46;;;;;;;17.50;3.25;;;;;;;;;;5094081;28;20024;-73
2023/10/30 11:23:12;;;;;;;15.50;2.70;;;;;;;;;;5093395;28;20077;-73
2023/10/30 11:25:50;;;;;;;16.48;3.22;;;;;;;;;;5103553;28;20016;-75
2023/10/30 11:28:16;;;;;;;16.65;3.20;;;;;;;;;;5096788;28;20384;-74
2023/10/30 11:30:43;;;;;;;15.85;2.70;;;;;;;;;;5098167;28;20079;-73
2023/10/30 11:33:22;;;;;;;17.13;3.03;;;;;;;;;;5095263;28;20114;-75
2023/10/30 11:36:12;;;;;;;15.98;2.83;;;;;;;;;;5093468;28;20038;-73
2023/10/30 11:38:48;;;;;;;12.95;2.63;;;;;;;;;;5096117;28;20034;-75
2023/10/30 11:41:15;;;;;;;22.73;2.90;;;;;;;;;;5092912;28;20093;-74
2023/10/30 11:43:42;;;;;;;15.73;3.03;;;;;;;;;;5093188;28;20542;-73
2023/10/30 11:46:08;;;;;;;16.15;2.65;;;;;;;;;;5092314;28;20020;-76
2023/10/30 11:48:37;;;;;;;18.35;2.47;;;;;;;;;;5093348;28;20471;-74
2023/10/30 11:51:03;;;;;;;15.05;2.92;;;;;;;;;;5093207;28;20056;-74
2023/10/30 11:53:29;;;;;;;21.58;3.08;;;;;;;;;;5093259;28;20032;-75
2023/10/30 11:55:55;;;;;;;18.55;3.30;;;;;;;;;;5093794;28;20031;-74
2023/10/30 11:58:21;;;;;;;14.77;2.70;;;;;;;;;;5095569;28;20490;-73
2023/10/30 12:00:48;;;;;;;18.52;3.05;;;;;;;;;;5092933;28;20063;-73
2023/10/30 12:03:14;;;;;;;15.85;3.88;;;;;;;;;;5091041;28;20025;-74
2023/10/30 12:05:40;;;;;;;30.67;3.97;;;;;;;;;;5092979;28;20487;-73
2023/10/30 12:08:06;;;;;;;14.35;3.00;;;;;;;;;;5092827;28;20028;-73
2023/10/30 12:10:33;;;;;;;15.80;3.45;;;;;;;;;;5092550;28;20016;-74
2023/10/30 12:12:59;;;;;;;20.27;2.97;;;;;;;;;;5090907;28;20024;-73
2023/10/30 12:15:28;;;;;;;20.33;2.65;;;;;;;;;;5091574;28;20486;-72
2023/10/30 12:17:56;;;;;;;17.33;3.10;;;;;;;;;;5094486;28;20176;-74
2023/10/30 12:20:22;;;;;;;12.70;2.47;;;;;;;;;;5093048;28;20047;-73
2023/10/30 12:22:48;;;;;;;13.55;2.78;;;;;;;;;;5092283;28;20020;-73
2023/10/30 12:25:17;;;;;;;16.63;2.95;;;;;;;;;;5092614;28;20046;-76
2023/10/30 12:27:44;;;;;;;13.43;2.60;;;;;;;;;;5092274;28;20043;-75
2023/10/30 12:30:17;;;;;;;11.75;2.90;;;;;;;;;;5092587;28;20483;-74
2023/10/30 12:32:43;;;;;;;19.00;3.50;;;;;;;;;;5092117;28;20429;-74
2023/10/30 12:35:16;;;;;;;19.48;3.40;;;;;;;;;;5092273;28;20028;-74
2023/10/30 12:37:42;;;;;;;19.90;3.45;;;;;;;;;;5090994;28;20111;-74
2023/10/30 12:40:15;;;;;;;16.77;3.60;;;;;;;;;;5092428;28;20020;-74
2023/10/30 12:42:42;;;;;;;17.27;2.95;;;;;;;;;;5091971;28;20103;-74
2023/10/30 12:45:09;;;;;;;13.50;2.72;;;;;;;;;;5091641;28;20028;-72
2023/10/30 12:47:36;;;;;;;10.98;2.60;;;;;;;;;;5091650;28;20088;-72
2023/10/30 12:50:02;;;;;;;15.00;2.88;;;;;;;;;;5091564;28;20020;-72
2023/10/30 12:52:28;;;;;;;16.05;3.28;;;;;;;;;;5091889;28;20028;-73
2023/10/30 12:54:54;;;;;;;12.70;2.40;;;;;;;;;;5092114;28;20430;-73
2023/10/30 12:57:20;;;;;;;14.07;2.78;;;;;;;;;;5092149;28;20036;-75
2023/10/30 12:59:46;;;;;;;13.85;2.88;;;;;;;;;;5093115;28;20032;-73
2023/10/30 13:02:12;;;;;;;18.55;3.10;;;;;;;;;;5094590;28;20060;-74
2023/10/30 13:04:38;;;;;;;12.75;2.67;;;;;;;;;;5093304;28;20020;-73
2023/10/30 13:07:04;;;;;;;15.55;4.30;;;;;;;;;;5091621;28;20093;-72
2023/10/30 13:09:30;;;;;;;17.15;2.97;;;;;;;;;;5092071;28;20024;-75
2023/10/30 13:11:56;;;;;;;15.30;2.72;;;;;;;;;;5092104;28;20105;-76
2023/10/30 13:14:22;;;;;;;12.90;3.65;;;;;;;;;;5092659;28;20031;-74
2023/10/30 13:16:48;;;;;;;14.25;3.30;;;;;;;;;;5092826;28;20032;-74
2023/10/30 13:19:14;;;;;;;16.40;3.05;;;;;;;;;;5092338;28;20031;-74
2023/10/30 13:21:41;;;;;;;11.68;2.58;;;;;;;;;;5092301;28;20031;-72
2023/10/30 13:24:10;;;;;;;18.67;2.95;;;;;;;;;;5092009;28;20028;-73
2023/10/30 13:26:36;;;;;;;16.23;2.78;;;;;;;;;;5092219;28;20024;-72
2023/10/30 13:29:02;;;;;;;11.55;2.53;;;;;;;;;;5091844;28;20400;-76
2023/10/30 13:31:29;;;;;;;19.13;3.88;;;;;;;;;;5091602;28;20020;-73
2023/10/30 13:33:55;;;;;;;21.05;3.90;;;;;;;;;;5091429;28;20028;-73
2023/10/30 13:36:21;;;;;;;20.85;2.80;;;;;;;;;;5091687;28;20051;-74
2023/10/30 13:38:47;;;;;;;21.45;3.08;;;;;;;;;;5094635;28;20107;-73
2023/10/30 13:41:13;;;;;;;16.48;3.00;;;;;;;;;;5097169;28;20027;-74
2023/10/30 13:43:41;;;;;;;14.32;3.15;;;;;;;;;;5096441;28;20056;-74
2023/10/30 13:46:08;;;;;;;16.30;2.88;;;;;;;;;;5097658;28;20129;-76
2023/10/30 13:48:34;;;;;;;16.50;2.90;;;;;;;;;;5094847;28;20016;-73
2023/10/30 13:51:00;;;;;;;16.45;2.90;;;;;;;;;;5094385;28;20024;-72
2023/10/30 13:53:26;;;;;;;15.13;2.60;;;;;;;;;;5094823;28;20028;-74
2023/10/30 13:55:52;;;;;;;12.02;2.58;;;;;;;;;;5095319;28;20028;-74
2023/10/30 13:58:18;;;;;;;16.08;2.72;;;;;;;;;;5095204;28;20056;-73
2023/10/30 14:00:44;;;;;;;12.82;2.95;;;;;;;;;;5095809;28;20504;-74
2023/10/30 14:03:10;;;;;;;17.38;2.85;;;;;;;;;;5095309;28;20032;-74
2023/10/30 14:05:36;;;;;;;13.15;3.03;;;;;;;;;;5094878;28;20176;-75
2023/10/30 14:08:03;;;;;;;13.93;3.03;;;;;;;;;;5095024;28;20101;-72
2023/10/30 14:10:29;;;;;;;16.10;2.58;;;;;;;;;;5095421;28;20126;-73
2023/10/30 14:12:55;;;;;;;14.57;3.33;;;;;;;;;;5094586;28;20056;-74
2023/10/30 14:15:20;;;;;;;11.15;3.00;;;;;;;;;;5094663;28;20024;-74
2023/10/30 14:17:46;;;;;;;16.50;2.83;;;;;;;;;;5094688;28;20028;-74
2023/10/30 14:20:14;;;;;;;16.75;3.03;;;;;;;;;;5095220;28;20103;-74
2023/10/30 14:22:40;;;;;;;19.48;3.80;;;;;;;;;;5095964;28;20024;-75
2023/10/30 14:25:06;;;;;;;15.70;3.13;;;;;;;;;;5101880;28;20031;-75
2023/10/30 14:27:32;;;;;;;20.63;3.25;;;;;;;;;;5095399;28;20069;-72